Lysite, Wyoming
Current Conditions -  °F | °C
As of 2:15 AM on Thursday 18 Dec 2014 (Local Time) from KTBX Reporting Station
Clear Clear  
Wind Chill: 12°   Ceiling: Unl
Heat Index: 23°   Visibility: NA
Dew Point: 16°   Wind: 10mph
Humidity: 74%   Direction: 300°WNW
Pressure: 29.99"   Gusts: NA
Location:  43.27°N, 107.69°W
Report Text: KTBX 180915Z AUTO 30009KT CLR M05/M09 A2999 RMK AO2 PWINO
Loading
Personal Weather Stations






























Interactive Weather Map New forecast layout! Learn more

10-Day Weather Forecast

Advertisements
Track Severe Weather on mobile